Time;durP1;ratioP1;P1;durP2;ratioP2;P2;SDS_P1;SDS_P2;PMS_P1;PMS_P2;Temp;Humidity;BMP_temperature;BMP_pressure;BME280_temperature;BME280_humidity;BME280_pressure;Samples;Min_cycle;Max_cycle;Signal;HPM_P1;HPM_P2
2022/08/05 00:00:12;;;;;;;;;;;;;;;;;;1024134;28;3345;-47
2022/08/05 00:01:09;;;;;;;;;;;;;;;;;;1020444;28;2925;-48
2022/08/05 00:01:40;;;;;;;;;;;;;;;;;;1020696;28;3295;-49
2022/08/05 00:02:10;;;;;;;;;;;;;;;;;;1020700;28;2597;-50
2022/08/05 00:02:41;;;;;;;;;;;;;;;;;;1025245;28;4382;-49
2022/08/05 00:03:11;;;;;;;;;;;;;;;;;;1025048;28;2546;-48
2022/08/05 00:03:41;;;;;;;;;;;;;;;;;;1026180;28;3571;-47
2022/08/05 00:04:12;;;;;;;;;;;;;;;;;;1024630;28;3254;-50
2022/08/05 00:04:42;;;;;;;;;;;;;;;;;;1025290;28;3391;-53
2022/08/05 00:05:12;;;;;;;;;;;;;;;;;;1024575;28;3396;-47
2022/08/05 00:05:42;;;;;;;;;;;;;;;;;;1024336;28;3485;-48
2022/08/05 00:06:13;;;;;;;;;;;;;;;;;;1023930;28;3387;-48
2022/08/05 00:06:43;;;;;;;;;;;;;;;;;;1025750;28;3927;-48
2022/08/05 00:07:13;;;;;;;;;;;;;;;;;;1024232;28;2954;-49
2022/08/05 00:07:43;;;;;;;;;;;;;;;;;;1025950;28;3055;-50
2022/08/05 00:08:14;;;;;;;;;;;;;;;;;;1025347;28;3538;-50
2022/08/05 00:08:44;;;;;;;;;;;;;;;;;;1025514;28;3204;-47
2022/08/05 00:09:14;;;;;;;;;;;;;;;;;;1023398;28;3258;-47
2022/08/05 00:09:45;;;;;;;;;;;;;;;;;;1025150;28;1658;-49
2022/08/05 00:10:15;;;;;;;;;;;;;;;;;;1025079;28;1508;-49
2022/08/05 00:10:45;;;;;;;;;;;;;;;;;;1024329;28;1662;-47
2022/08/05 00:11:16;;;;;;;;;;;;;;;;;;1024197;28;1942;-47
2022/08/05 00:11:47;;;;;;;;;;;;;;;;;;1021879;28;3799;-47
2022/08/05 00:12:17;;;;;;;;;;;;;;;;;;1024622;28;3673;-51
2022/08/05 00:12:48;;;;;;;;;;;;;;;;;;1023208;28;4372;-48
2022/08/05 00:13:18;;;;;;;;;;;;;;;;;;1025253;28;3585;-50
2022/08/05 00:14:02;;;;;;;;;;;;;;;;;;1029778;28;2239;-49
2022/08/05 00:14:32;;;;;;;;;;;;;;;;;;1031532;28;2901;-46
2022/08/05 00:15:02;;;;;;;;;;;;;;;;;;1031890;28;1688;-48
2022/08/05 00:15:33;;;;;;;;;;;;;;;;;;1030481;28;1645;-48
2022/08/05 00:16:03;;;;;;;;;;;;;;;;;;1029218;28;1686;-47
2022/08/05 00:16:34;;;;;;;;;;;;;;;;;;1028365;28;2194;-48
2022/08/05 00:17:04;;;;;;;;;;;;;;;;;;1029168;28;2394;-47
2022/08/05 00:17:34;;;;;;;;;;;;;;;;;;1028082;28;3282;-47
2022/08/05 00:18:04;;;;;;;;;;;;;;;;;;1027214;28;4293;-47
2022/08/05 00:18:35;;;;;;;;;;;;;;;;;;1026430;28;3862;-50
2022/08/05 00:19:27;;;;;;;;;;;;;;;;;;1028133;28;3093;-49
2022/08/05 00:19:57;;;;;;;;;;;;;;;;;;1026439;28;3730;-47
2022/08/05 00:20:27;;;;;;;;;;;;;;;;;;1031134;28;3988;-47
2022/08/05 00:20:57;;;;;;;;;;;;;;;;;;1032575;28;1647;-52
2022/08/05 00:21:28;;;;;;;;;;;;;;;;;;1033880;28;1696;-50
2022/08/05 00:21:58;;;;;;;;;;;;;;;;;;1032583;28;2154;-49
2022/08/05 00:22:28;;;;;;;;;;;;;;;;;;1030251;28;1961;-49
2022/08/05 00:22:59;;;;;;;;;;;;;;;;;;1028385;28;3066;-49
2022/08/05 00:23:29;;;;;;;;;;;;;;;;;;1026238;28;3513;-49
2022/08/05 00:23:59;;;;;;;;;;;;;;;;;;1029447;28;3451;-48
2022/08/05 00:24:29;;;;;;;;;;;;;;;;;;1028945;28;3247;-48
2022/08/05 00:25:00;;;;;;;;;;;;;;;;;;1029192;28;1726;-48
2022/08/05 00:25:30;;;;;;;;;;;;;;;;;;1027473;28;3897;-50
2022/08/05 00:26:00;;;;;;;;;;;;;;;;;;1028252;28;4461;-47
2022/08/05 00:26:30;;;;;;;;;;;;;;;;;;1029308;28;3197;-49
2022/08/05 00:27:01;;;;;;;;;;;;;;;;;;1028872;28;3357;-48
2022/08/05 00:27:32;;;;;;;;;;;;;;;;;;1030508;28;1599;-47
2022/08/05 00:28:02;;;;;;;;;;;;;;;;;;1029542;28;1703;-48
2022/08/05 00:28:32;;;;;;;;;;;;;;;;;;1029220;28;3366;-48
2022/08/05 00:29:02;;;;;;;;;;;;;;;;;;1029179;28;3186;-46
2022/08/05 00:29:33;;;;;;;;;;;;;;;;;;1030205;28;1756;-51
2022/08/05 00:30:04;;;;;;;;;;;;;;;;;;1028815;28;2548;-51
2022/08/05 00:30:34;;;;;;;;;;;;;;;;;;1026572;28;3549;-48
2022/08/05 00:31:05;;;;;;;;;;;;;;;;;;1027378;28;3267;-47
2022/08/05 00:31:35;;;;;;;;;;;;;;;;;;1030566;28;3230;-52
2022/08/05 00:32:07;;;;;;;;;;;;;;;;;;1029583;28;1890;-47
2022/08/05 00:32:37;;;;;;;;;;;;;;;;;;1029296;28;3381;-48
2022/08/05 00:33:08;;;;;;;;;;;;;;;;;;1029773;28;1733;-47
2022/08/05 00:33:46;;;;;;;;;;;;;;;;;;1033703;28;3491;-48
2022/08/05 00:34:16;;;;;;;;;;;;;;;;;;1032551;28;3148;-50
2022/08/05 00:34:46;;;;;;;;;;;;;;;;;;1033794;28;3493;-48
2022/08/05 00:35:17;;;;;;;;;;;;;;;;;;1032206;28;2926;-49
2022/08/05 00:35:47;;;;;;;;;;;;;;;;;;1029553;28;3298;-49
2022/08/05 00:36:17;;;;;;;;;;;;;;;;;;1029455;28;2702;-47
2022/08/05 00:36:47;;;;;;;;;;;;;;;;;;1029213;28;1708;-48
2022/08/05 00:37:18;;;;;;;;;;;;;;;;;;1028957;28;3286;-49
2022/08/05 00:37:48;;;;;;;;;;;;;;;;;;1029155;28;3548;-50
2022/08/05 00:38:18;;;;;;;;;;;;;;;;;;1029132;28;2532;-50
2022/08/05 00:38:49;;;;;;;;;;;;;;;;;;1028752;28;2846;-49
2022/08/05 00:39:19;;;;;;;;;;;;;;;;;;1028900;28;2891;-49
2022/08/05 00:39:49;;;;;;;;;;;;;;;;;;1029167;28;3496;-48
2022/08/05 00:40:22;;;;;;;;;;;;;;;;;;1028162;28;3165;-47
2022/08/05 00:40:55;;;;;;;;;;;;;;;;;;1029031;28;2505;-50
2022/08/05 00:41:32;;;;;;;;;;;;;;;;;;1029128;28;3365;-51
2022/08/05 00:42:02;;;;;;;;;;;;;;;;;;1029791;28;1597;-48
2022/08/05 00:42:36;;;;;;;;;;;;;;;;;;1028669;28;3293;-47
2022/08/05 00:43:07;;;;;;;;;;;;;;;;;;1028984;28;2471;-48
2022/08/05 00:43:37;;;;;;;;;;;;;;;;;;1029248;28;3305;-48
2022/08/05 00:44:07;;;;;;;;;;;;;;;;;;1029522;28;2004;-50
2022/08/05 00:44:38;;;;;;;;;;;;;;;;;;1029080;28;3258;-48
2022/08/05 00:45:08;;;;;;;;;;;;;;;;;;1028730;28;2414;-48
2022/08/05 00:45:39;;;;;;;;;;;;;;;;;;1029676;28;3161;-49
2022/08/05 00:46:09;;;;;;;;;;;;;;;;;;1029808;28;1210;-49
2022/08/05 00:46:39;;;;;;;;;;;;;;;;;;1029653;28;3359;-48
2022/08/05 00:47:10;;;;;;;;;;;;;;;;;;1029732;28;1610;-48
2022/08/05 00:47:40;;;;;;;;;;;;;;;;;;1028715;28;2641;-48
2022/08/05 00:48:12;;;;;;;;;;;;;;;;;;1029088;28;2391;-49
2022/08/05 00:48:42;;;;;;;;;;;;;;;;;;1030144;28;3364;-50
2022/08/05 00:49:12;;;;;;;;;;;;;;;;;;1028963;28;2320;-51
2022/08/05 00:49:43;;;;;;;;;;;;;;;;;;1029997;28;3060;-48
2022/08/05 00:50:13;;;;;;;;;;;;;;;;;;1029203;28;2599;-47
2022/08/05 00:50:44;;;;;;;;;;;;;;;;;;1029967;28;1705;-48
2022/08/05 00:51:14;;;;;;;;;;;;;;;;;;1028363;28;1974;-50
2022/08/05 00:51:45;;;;;;;;;;;;;;;;;;1029339;28;2288;-48
2022/08/05 00:52:15;;;;;;;;;;;;;;;;;;1029088;28;1803;-48
2022/08/05 00:52:45;;;;;;;;;;;;;;;;;;1029146;28;2642;-48
2022/08/05 00:53:17;;;;;;;;;;;;;;;;;;1028823;28;2804;-47
2022/08/05 00:53:48;;;;;;;;;;;;;;;;;;1029491;28;3369;-48
2022/08/05 00:54:18;;;;;;;;;;;;;;;;;;1029309;28;3097;-49
2022/08/05 00:54:48;;;;;;;;;;;;;;;;;;1030092;28;3534;-47
2022/08/05 00:55:19;;;;;;;;;;;;;;;;;;1027516;28;2958;-50
2022/08/05 00:55:49;;;;;;;;;;;;;;;;;;1029830;28;3363;-48
2022/08/05 00:56:20;;;;;;;;;;;;;;;;;;1028579;28;2532;-50
2022/08/05 00:56:50;;;;;;;;;;;;;;;;;;1029837;28;2938;-48
2022/08/05 00:57:20;;;;;;;;;;;;;;;;;;1029017;28;3361;-47
2022/08/05 00:57:51;;;;;;;;;;;;;;;;;;1028979;28;3722;-46
2022/08/05 00:58:21;;;;;;;;;;;;;;;;;;1029839;28;2632;-48
2022/08/05 00:58:51;;;;;;;;;;;;;;;;;;1029852;28;1310;-51
2022/08/05 00:59:21;;;;;;;;;;;;;;;;;;1028892;28;2383;-49
2022/08/05 00:59:52;;;;;;;;;;;;;;;;;;1029975;28;1671;-45
2022/08/05 01:00:22;;;;;;;;;;;;;;;;;;1027762;28;3388;-48
2022/08/05 01:00:52;;;;;;;;;;;;;;;;;;1029823;28;3972;-46
2022/08/05 01:01:23;;;;;;;;;;;;;;;;;;1031856;28;3082;-50
2022/08/05 01:01:53;;;;;;;;;;;;;;;;;;1033192;28;1563;-48
2022/08/05 01:02:23;;;;;;;;;;;;;;;;;;1032749;28;2637;-50
2022/08/05 01:02:54;;;;;;;;;;;;;;;;;;1032237;28;3304;-49
2022/08/05 01:03:25;;;;;;;;;;;;;;;;;;1029155;28;2479;-50
2022/08/05 01:03:55;;;;;;;;;;;;;;;;;;1029902;28;1717;-50
2022/08/05 01:04:25;;;;;;;;;;;;;;;;;;1029348;28;3204;-51
2022/08/05 01:04:55;;;;;;;;;;;;;;;;;;1030007;28;2326;-50
2022/08/05 01:05:26;;;;;;;;;;;;;;;;;;1028806;28;2039;-47
2022/08/05 01:05:56;;;;;;;;;;;;;;;;;;1029175;28;1904;-46
2022/08/05 01:06:26;;;;;;;;;;;;;;;;;;1029132;28;3349;-47
2022/08/05 01:06:57;;;;;;;;;;;;;;;;;;1029482;28;1712;-50
2022/08/05 01:07:27;;;;;;;;;;;;;;;;;;1028903;28;3306;-47
2022/08/05 01:07:57;;;;;;;;;;;;;;;;;;1028851;28;2286;-50
2022/08/05 01:08:27;;;;;;;;;;;;;;;;;;1030281;28;1586;-47
2022/08/05 01:08:59;;;;;;;;;;;;;;;;;;1029611;28;1684;-47
2022/08/05 01:09:29;;;;;;;;;;;;;;;;;;1028554;28;2868;-48
2022/08/05 01:10:00;;;;;;;;;;;;;;;;;;1027931;28;3195;-51
2022/08/05 01:10:34;;;;;;;;;;;;;;;;;;1028498;28;3492;-50
2022/08/05 01:11:14;;;;;;;;;;;;;;;;;;1029441;28;3412;-48
2022/08/05 01:11:47;;;;;;;;;;;;;;;;;;1029549;28;2512;-49
2022/08/05 01:12:19;;;;;;;;;;;;;;;;;;1028688;28;2457;-49
2022/08/05 01:12:52;;;;;;;;;;;;;;;;;;1029965;28;2640;-48
2022/08/05 01:13:29;;;;;;;;;;;;;;;;;;1028436;28;2566;-49
2022/08/05 01:14:26;;;;;;;;;;;;;;;;;;1029201;28;1814;-50
2022/08/05 01:15:00;;;;;;;;;;;;;;;;;;1029847;28;2001;-49
2022/08/05 01:15:33;;;;;;;;;;;;;;;;;;1029638;28;2625;-48
2022/08/05 01:16:05;;;;;;;;;;;;;;;;;;1028401;28;3084;-47
2022/08/05 01:16:44;;;;;;;;;;;;;;;;;;1029150;28;2531;-51
2022/08/05 01:17:19;;;;;;;;;;;;;;;;;;1028500;28;2375;-49
2022/08/05 01:17:51;;;;;;;;;;;;;;;;;;1028194;28;2896;-49
2022/08/05 01:18:23;;;;;;;;;;;;;;;;;;1028733;28;3605;-48
2022/08/05 01:18:57;;;;;;;;;;;;;;;;;;1030011;28;1974;-50
2022/08/05 01:19:33;;;;;;;;;;;;;;;;;;1027807;28;3718;-47
2022/08/05 01:20:04;;;;;;;;;;;;;;;;;;1029115;28;2107;-47
2022/08/05 01:20:37;;;;;;;;;;;;;;;;;;1029420;28;2603;-46
2022/08/05 01:21:07;;;;;;;;;;;;;;;;;;1029864;28;1311;-46
2022/08/05 01:21:40;;;;;;;;;;;;;;;;;;1029680;28;1690;-48
2022/08/05 01:22:11;;;;;;;;;;;;;;;;;;1028846;28;3366;-49
2022/08/05 01:22:44;;;;;;;;;;;;;;;;;;1029885;28;1910;-49
2022/08/05 01:23:28;;;;;;;;;;;;;;;;;;1029402;28;2033;-49
2022/08/05 01:24:04;;;;;;;;;;;;;;;;;;1029205;28;3517;-47
2022/08/05 01:24:34;;;;;;;;;;;;;;;;;;1028476;28;2296;-47
2022/08/05 01:25:20;;;;;;;;;;;;;;;;;;1028718;28;1430;-50
2022/08/05 01:26:09;;;;;;;;;;;;;;;;;;1028558;28;3006;-48
2022/08/05 01:26:57;;;;;;;;;;;;;;;;;;1027445;28;3366;-50
2022/08/05 01:27:38;;;;;;;;;;;;;;;;;;1029353;28;1614;-50
2022/08/05 01:28:13;;;;;;;;;;;;;;;;;;1029883;28;2197;-48
2022/08/05 01:28:52;;;;;;;;;;;;;;;;;;1029639;28;3374;-49
2022/08/05 01:29:35;;;;;;;;;;;;;;;;;;1029258;28;2476;-49
2022/08/05 01:30:12;;;;;;;;;;;;;;;;;;1028599;28;2278;-47
2022/08/05 01:30:50;;;;;;;;;;;;;;;;;;1029946;28;2891;-48
2022/08/05 01:31:42;;;;;;;;;;;;;;;;;;1029792;28;1782;-47
2022/08/05 01:32:15;;;;;;;;;;;;;;;;;;1029473;28;3003;-52
2022/08/05 01:32:45;;;;;;;;;;;;;;;;;;1028677;28;3081;-49
2022/08/05 01:33:17;;;;;;;;;;;;;;;;;;1028297;28;2299;-47
2022/08/05 01:33:54;;;;;;;;;;;;;;;;;;1029643;28;2491;-48
2022/08/05 01:34:26;;;;;;;;;;;;;;;;;;1027709;28;3698;-46
2022/08/05 01:35:01;;;;;;;;;;;;;;;;;;1029002;28;2222;-50
2022/08/05 01:35:32;;;;;;;;;;;;;;;;;;1029231;28;3285;-49
2022/08/05 01:36:07;;;;;;;;;;;;;;;;;;1029652;28;1700;-49
2022/08/05 01:36:42;;;;;;;;;;;;;;;;;;1028737;28;5411;-51
2022/08/05 01:37:23;;;;;;;;;;;;;;;;;;1028586;28;2986;-50
2022/08/05 01:37:55;;;;;;;;;;;;;;;;;;1029516;28;1849;-50
2022/08/05 01:38:26;;;;;;;;;;;;;;;;;;1029960;28;2230;-48
2022/08/05 01:38:58;;;;;;;;;;;;;;;;;;1028304;28;3172;-47
2022/08/05 01:39:29;;;;;;;;;;;;;;;;;;1029273;28;3374;-49
2022/08/05 01:40:00;;;;;;;;;;;;;;;;;;1029064;28;1640;-49
2022/08/05 01:40:31;;;;;;;;;;;;;;;;;;1033864;28;1664;-48
2022/08/05 01:41:03;;;;;;;;;;;;;;;;;;1030601;28;3242;-46
2022/08/05 01:41:34;;;;;;;;;;;;;;;;;;1032296;28;3034;-48
2022/08/05 01:42:05;;;;;;;;;;;;;;;;;;1032697;28;1595;-47
2022/08/05 01:42:36;;;;;;;;;;;;;;;;;;1029475;28;2570;-47
2022/08/05 01:43:08;;;;;;;;;;;;;;;;;;1029664;28;1621;-47
2022/08/05 01:43:39;;;;;;;;;;;;;;;;;;1029276;28;2566;-48
2022/08/05 01:44:10;;;;;;;;;;;;;;;;;;1032522;28;2027;-50
2022/08/05 01:44:41;;;;;;;;;;;;;;;;;;1033022;28;3014;-49
2022/08/05 01:45:13;;;;;;;;;;;;;;;;;;1028171;28;2766;-51
2022/08/05 01:45:44;;;;;;;;;;;;;;;;;;1029734;28;3786;-51
2022/08/05 01:46:15;;;;;;;;;;;;;;;;;;1028813;28;2075;-48
2022/08/05 01:46:46;;;;;;;;;;;;;;;;;;1029000;28;3374;-50
2022/08/05 01:47:20;;;;;;;;;;;;;;;;;;1032929;28;1701;-50
2022/08/05 01:47:51;;;;;;;;;;;;;;;;;;1032200;28;2215;-48
2022/08/05 01:48:22;;;;;;;;;;;;;;;;;;1031941;28;1815;-48
2022/08/05 01:48:53;;;;;;;;;;;;;;;;;;1028290;28;3309;-50
2022/08/05 01:49:25;;;;;;;;;;;;;;;;;;1032583;28;2761;-47
2022/08/05 01:49:56;;;;;;;;;;;;;;;;;;1033014;28;1814;-47
2022/08/05 01:50:29;;;;;;;;;;;;;;;;;;1032555;28;2085;-47
2022/08/05 01:51:00;;;;;;;;;;;;;;;;;;1033117;28;2446;-47
2022/08/05 01:51:32;;;;;;;;;;;;;;;;;;1026842;28;3765;-48
2022/08/05 01:52:02;;;;;;;;;;;;;;;;;;1028922;28;3333;-50
2022/08/05 01:52:35;;;;;;;;;;;;;;;;;;1028705;28;3289;-48
2022/08/05 01:53:08;;;;;;;;;;;;;;;;;;1030177;28;3547;-48
2022/08/05 01:53:40;;;;;;;;;;;;;;;;;;1027799;28;2939;-47
2022/08/05 01:54:11;;;;;;;;;;;;;;;;;;1029033;28;3361;-47
2022/08/05 01:54:43;;;;;;;;;;;;;;;;;;1029247;28;1828;-50
2022/08/05 01:55:15;;;;;;;;;;;;;;;;;;1029327;28;3006;-48
2022/08/05 01:55:46;;;;;;;;;;;;;;;;;;1029285;28;2948;-48
2022/08/05 01:56:17;;;;;;;;;;;;;;;;;;1028316;28;3224;-49
2022/08/05 01:56:49;;;;;;;;;;;;;;;;;;1029626;28;3540;-47
2022/08/05 01:57:23;;;;;;;;;;;;;;;;;;1029489;28;1601;-49
2022/08/05 01:57:55;;;;;;;;;;;;;;;;;;1028975;28;2515;-47
2022/08/05 01:58:26;;;;;;;;;;;;;;;;;;1029012;28;2623;-47
2022/08/05 01:58:57;;;;;;;;;;;;;;;;;;1028727;28;1795;-48
2022/08/05 01:59:30;;;;;;;;;;;;;;;;;;1028316;28;2756;-50
2022/08/05 02:00:01;;;;;;;;;;;;;;;;;;1027955;28;3313;-46
2022/08/05 02:00:33;;;;;;;;;;;;;;;;;;1029203;28;2376;-48
2022/08/05 02:01:04;;;;;;;;;;;;;;;;;;1029774;28;1818;-45
2022/08/05 02:01:36;;;;;;;;;;;;;;;;;;1030055;28;1626;-47
2022/08/05 02:02:07;;;;;;;;;;;;;;;;;;1029499;28;1616;-51
2022/08/05 02:02:40;;;;;;;;;;;;;;;;;;1029046;28;2043;-47
2022/08/05 02:03:24;;;;;;;;;;;;;;;;;;1031566;28;2451;-50
2022/08/05 02:03:55;;;;;;;;;;;;;;;;;;1033277;28;2119;-49
2022/08/05 02:04:27;;;;;;;;;;;;;;;;;;1033081;28;1692;-48
2022/08/05 02:04:59;;;;;;;;;;;;;;;;;;1030530;28;2498;-47
2022/08/05 02:05:31;;;;;;;;;;;;;;;;;;1029052;28;2413;-46
2022/08/05 02:06:04;;;;;;;;;;;;;;;;;;1028517;28;3442;-47
2022/08/05 02:06:34;;;;;;;;;;;;;;;;;;1028945;28;3101;-47
2022/08/05 02:07:05;;;;;;;;;;;;;;;;;;1029512;28;2183;-48
2022/08/05 02:07:35;;;;;;;;;;;;;;;;;;1029346;28;3257;-47
2022/08/05 02:08:05;;;;;;;;;;;;;;;;;;1033127;28;2030;-48
2022/08/05 02:08:36;;;;;;;;;;;;;;;;;;1033724;28;2233;-50
2022/08/05 02:09:07;;;;;;;;;;;;;;;;;;1033640;28;1672;-49
2022/08/05 02:09:37;;;;;;;;;;;;;;;;;;1033001;28;3349;-47
2022/08/05 02:10:08;;;;;;;;;;;;;;;;;;1030007;28;1702;-49
2022/08/05 02:10:40;;;;;;;;;;;;;;;;;;1030202;28;2704;-47
2022/08/05 02:11:12;;;;;;;;;;;;;;;;;;1028473;28;3481;-48
2022/08/05 02:12:02;;;;;;;;;;;;;;;;;;1029830;28;3300;-46
2022/08/05 02:12:45;;;;;;;;;;;;;;;;;;1028870;28;3230;-49
2022/08/05 02:13:26;;;;;;;;;;;;;;;;;;1029324;28;3135;-49
2022/08/05 02:14:06;;;;;;;;;;;;;;;;;;1030349;28;1443;-46
2022/08/05 02:14:40;;;;;;;;;;;;;;;;;;1028958;28;2402;-49
2022/08/05 02:15:27;;;;;;;;;;;;;;;;;;1028627;28;2840;-49
2022/08/05 02:16:04;;;;;;;;;;;;;;;;;;1030313;28;1579;-51
2022/08/05 02:16:45;;;;;;;;;;;;;;;;;;1028614;28;2832;-50
2022/08/05 02:17:35;;;;;;;;;;;;;;;;;;1028653;28;3492;-48
2022/08/05 02:18:19;;;;;;;;;;;;;;;;;;1029064;28;3487;-47
2022/08/05 02:18:53;;;;;;;;;;;;;;;;;;1029949;28;2722;-47
2022/08/05 02:19:26;;;;;;;;;;;;;;;;;;1029011;28;2737;-47
2022/08/05 02:19:59;;;;;;;;;;;;;;;;;;1029906;28;3319;-47
2022/08/05 02:20:32;;;;;;;;;;;;;;;;;;1029750;28;1917;-53
2022/08/05 02:21:05;;;;;;;;;;;;;;;;;;1030752;28;4094;-48
2022/08/05 02:21:38;;;;;;;;;;;;;;;;;;1029058;28;3091;-50
2022/08/05 02:22:16;;;;;;;;;;;;;;;;;;1029177;28;2697;-49
2022/08/05 02:22:48;;;;;;;;;;;;;;;;;;1031332;28;3969;-49
2022/08/05 02:23:21;;;;;;;;;;;;;;;;;;1033024;28;2031;-50
2022/08/05 02:23:53;;;;;;;;;;;;;;;;;;1034279;28;2786;-48
2022/08/05 02:24:29;;;;;;;;;;;;;;;;;;1032089;28;3252;-50
2022/08/05 02:25:11;;;;;;;;;;;;;;;;;;1030513;28;3112;-48
2022/08/05 02:25:42;;;;;;;;;;;;;;;;;;1029838;28;3775;-47
2022/08/05 02:26:14;;;;;;;;;;;;;;;;;;1029755;28;2230;-48
2022/08/05 02:26:50;;;;;;;;;;;;;;;;;;1028592;28;3356;-49
2022/08/05 02:27:22;;;;;;;;;;;;;;;;;;1029381;28;2465;-48
2022/08/05 02:27:53;;;;;;;;;;;;;;;;;;1030545;28;3834;-49
2022/08/05 02:28:26;;;;;;;;;;;;;;;;;;1032196;28;3397;-50
2022/08/05 02:28:57;;;;;;;;;;;;;;;;;;1033662;28;2115;-47
2022/08/05 02:29:28;;;;;;;;;;;;;;;;;;1032926;28;3131;-50
2022/08/05 02:29:59;;;;;;;;;;;;;;;;;;1032979;28;1970;-47
2022/08/05 02:30:34;;;;;;;;;;;;;;;;;;1034015;28;2262;-46
2022/08/05 02:31:06;;;;;;;;;;;;;;;;;;1033304;28;2135;-47
2022/08/05 02:31:37;;;;;;;;;;;;;;;;;;1028354;28;2891;-47
2022/08/05 02:32:08;;;;;;;;;;;;;;;;;;1029342;28;2799;-48
2022/08/05 02:32:39;;;;;;;;;;;;;;;;;;1029295;28;1838;-47
2022/08/05 02:33:10;;;;;;;;;;;;;;;;;;1029409;28;3657;-50
2022/08/05 02:33:52;;;;;;;;;;;;;;;;;;1030830;28;1630;-48
2022/08/05 02:34:23;;;;;;;;;;;;;;;;;;1029126;28;2953;-51
2022/08/05 02:34:54;;;;;;;;;;;;;;;;;;1030358;28;1621;-49
2022/08/05 02:35:25;;;;;;;;;;;;;;;;;;1029155;28;3283;-49
2022/08/05 02:35:57;;;;;;;;;;;;;;;;;;1030255;28;2844;-47
2022/08/05 02:36:29;;;;;;;;;;;;;;;;;;1029581;28;3102;-49
2022/08/05 02:37:01;;;;;;;;;;;;;;;;;;1028559;28;2655;-50
2022/08/05 02:37:32;;;;;;;;;;;;;;;;;;1030261;28;3055;-48
2022/08/05 02:38:03;;;;;;;;;;;;;;;;;;1029384;28;2202;-49
2022/08/05 02:38:34;;;;;;;;;;;;;;;;;;1029938;28;3313;-47
2022/08/05 02:39:06;;;;;;;;;;;;;;;;;;1030127;28;2030;-47
2022/08/05 02:39:37;;;;;;;;;;;;;;;;;;1029817;28;2751;-49
2022/08/05 02:40:08;;;;;;;;;;;;;;;;;;1029745;28;1949;-49
2022/08/05 02:40:40;;;;;;;;;;;;;;;;;;1030448;28;3069;-47
2022/08/05 02:41:10;;;;;;;;;;;;;;;;;;1028804;28;2330;-47
2022/08/05 02:41:41;;;;;;;;;;;;;;;;;;1030741;28;2223;-48
2022/08/05 02:42:12;;;;;;;;;;;;;;;;;;1028445;28;3305;-50
2022/08/05 02:42:43;;;;;;;;;;;;;;;;;;1030357;28;2462;-48
2022/08/05 02:43:15;;;;;;;;;;;;;;;;;;1029324;28;3124;-49
2022/08/05 02:43:46;;;;;;;;;;;;;;;;;;1030610;28;2511;-49
2022/08/05 02:44:17;;;;;;;;;;;;;;;;;;1029441;28;2855;-49
2022/08/05 02:44:48;;;;;;;;;;;;;;;;;;1030649;28;2367;-48
2022/08/05 02:45:19;;;;;;;;;;;;;;;;;;1029185;28;3322;-48
2022/08/05 02:45:51;;;;;;;;;;;;;;;;;;1030628;28;3435;-49
2022/08/05 02:46:22;;;;;;;;;;;;;;;;;;1029164;28;3099;-46
2022/08/05 02:46:54;;;;;;;;;;;;;;;;;;1030662;28;2999;-48
2022/08/05 02:47:24;;;;;;;;;;;;;;;;;;1028993;28;2741;-48
2022/08/05 02:47:56;;;;;;;;;;;;;;;;;;1029298;28;3235;-48
2022/08/05 02:48:26;;;;;;;;;;;;;;;;;;1028582;28;2646;-47
2022/08/05 02:48:57;;;;;;;;;;;;;;;;;;1030825;28;1724;-46
2022/08/05 02:49:32;;;;;;;;;;;;;;;;;;1028988;28;3177;-49
2022/08/05 02:50:03;;;;;;;;;;;;;;;;;;1029572;28;1855;-50
2022/08/05 02:50:35;;;;;;;;;;;;;;;;;;1029195;28;2409;-49
2022/08/05 02:51:06;;;;;;;;;;;;;;;;;;1033877;28;1722;-49
2022/08/05 02:51:36;;;;;;;;;;;;;;;;;;1031958;28;3336;-47
2022/08/05 02:52:09;;;;;;;;;;;;;;;;;;1032911;28;2765;-49
2022/08/05 02:52:40;;;;;;;;;;;;;;;;;;1032434;28;2600;-50
2022/08/05 02:53:11;;;;;;;;;;;;;;;;;;1029368;28;3164;-49
2022/08/05 02:53:42;;;;;;;;;;;;;;;;;;1029371;28;3129;-50
2022/08/05 02:54:13;;;;;;;;;;;;;;;;;;1030212;28;1942;-51
2022/08/05 02:54:44;;;;;;;;;;;;;;;;;;1030326;28;1749;-47
2022/08/05 02:55:14;;;;;;;;;;;;;;;;;;1030010;28;2396;-46
2022/08/05 02:55:49;;;;;;;;;;;;;;;;;;1030188;28;3322;-49
2022/08/05 02:56:19;;;;;;;;;;;;;;;;;;1033277;28;2365;-48
2022/08/05 02:56:50;;;;;;;;;;;;;;;;;;1032825;28;3323;-49
2022/08/05 02:57:21;;;;;;;;;;;;;;;;;;1032835;28;2767;-50
2022/08/05 02:57:51;;;;;;;;;;;;;;;;;;1033094;28;2939;-50
2022/08/05 02:58:22;;;;;;;;;;;;;;;;;;1033068;28;2827;-49
2022/08/05 02:58:52;;;;;;;;;;;;;;;;;;1033501;28;2104;-50
2022/08/05 02:59:25;;;;;;;;;;;;;;;;;;1033575;28;2629;-49
2022/08/05 02:59:56;;;;;;;;;;;;;;;;;;1033315;28;1795;-49
2022/08/05 03:00:27;;;;;;;;;;;;;;;;;;1028484;28;3692;-48
2022/08/05 03:00:59;;;;;;;;;;;;;;;;;;1029769;28;1621;-49
2022/08/05 03:01:30;;;;;;;;;;;;;;;;;;1030451;28;1825;-48
2022/08/05 03:02:01;;;;;;;;;;;;;;;;;;1030056;28;1793;-50
2022/08/05 03:02:33;;;;;;;;;;;;;;;;;;1029485;28;3329;-48
2022/08/05 03:03:12;;;;;;;;;;;;;;;;;;1029410;28;3440;-52
2022/08/05 03:03:43;;;;;;;;;;;;;;;;;;1029090;28;3145;-47
2022/08/05 03:04:13;;;;;;;;;;;;;;;;;;1030265;28;3604;-47
2022/08/05 03:04:44;;;;;;;;;;;;;;;;;;1033853;28;3298;-48
2022/08/05 03:05:14;;;;;;;;;;;;;;;;;;1032482;28;3451;-49
2022/08/05 03:05:46;;;;;;;;;;;;;;;;;;1033082;28;3005;-47
2022/08/05 03:06:16;;;;;;;;;;;;;;;;;;1032590;28;2380;-48
2022/08/05 03:06:46;;;;;;;;;;;;;;;;;;1030643;28;2985;-46
2022/08/05 03:07:17;;;;;;;;;;;;;;;;;;1029161;28;1951;-49
2022/08/05 03:07:48;;;;;;;;;;;;;;;;;;1030175;28;2648;-50
2022/08/05 03:08:19;;;;;;;;;;;;;;;;;;1028669;28;3277;-50
2022/08/05 03:08:50;;;;;;;;;;;;;;;;;;1030067;28;3399;-47
2022/08/05 03:09:20;;;;;;;;;;;;;;;;;;1028946;28;2664;-48
2022/08/05 03:09:50;;;;;;;;;;;;;;;;;;1030586;28;3342;-47
2022/08/05 03:10:23;;;;;;;;;;;;;;;;;;1029010;28;2167;-48
2022/08/05 03:10:53;;;;;;;;;;;;;;;;;;1029964;28;3056;-49
2022/08/05 03:11:24;;;;;;;;;;;;;;;;;;1032095;28;3390;-48
2022/08/05 03:11:54;;;;;;;;;;;;;;;;;;1034103;28;1645;-52
2022/08/05 03:12:28;;;;;;;;;;;;;;;;;;1031549;28;2935;-48
2022/08/05 03:13:18;;;;;;;;;;;;;;;;;;1033574;28;1760;-48
2022/08/05 03:13:48;;;;;;;;;;;;;;;;;;1030584;28;3036;-51
2022/08/05 03:14:39;;;;;;;;;;;;;;;;;;1029236;28;2558;-48
2022/08/05 03:15:09;;;;;;;;;;;;;;;;;;1028293;28;3575;-47
2022/08/05 03:15:43;;;;;;;;;;;;;;;;;;1028886;28;3780;-49
2022/08/05 03:16:13;;;;;;;;;;;;;;;;;;1029129;28;2623;-50
2022/08/05 03:16:50;;;;;;;;;;;;;;;;;;1029926;28;1912;-47
2022/08/05 03:17:20;;;;;;;;;;;;;;;;;;1030112;28;3191;-49
2022/08/05 03:17:51;;;;;;;;;;;;;;;;;;1028885;28;3489;-50
2022/08/05 03:18:21;;;;;;;;;;;;;;;;;;1029412;28;3318;-48
2022/08/05 03:18:52;;;;;;;;;;;;;;;;;;1029618;28;3331;-49
2022/08/05 03:19:22;;;;;;;;;;;;;;;;;;1029730;28;2844;-48
2022/08/05 03:19:52;;;;;;;;;;;;;;;;;;1029049;28;2155;-49
2022/08/05 03:20:23;;;;;;;;;;;;;;;;;;1029978;28;3061;-49
2022/08/05 03:20:53;;;;;;;;;;;;;;;;;;1028516;28;2606;-47
2022/08/05 03:21:23;;;;;;;;;;;;;;;;;;1030312;28;1710;-46
2022/08/05 03:21:53;;;;;;;;;;;;;;;;;;1029578;28;1719;-49
2022/08/05 03:22:24;;;;;;;;;;;;;;;;;;1029889;28;4024;-49
2022/08/05 03:22:54;;;;;;;;;;;;;;;;;;1029391;28;2103;-46
2022/08/05 03:23:24;;;;;;;;;;;;;;;;;;1029189;28;2836;-49
2022/08/05 03:23:55;;;;;;;;;;;;;;;;;;1029444;28;1663;-48
2022/08/05 03:24:26;;;;;;;;;;;;;;;;;;1030264;28;1199;-48
2022/08/05 03:24:56;;;;;;;;;;;;;;;;;;1029412;28;1844;-50
2022/08/05 03:25:27;;;;;;;;;;;;;;;;;;1029912;28;2846;-48
2022/08/05 03:25:57;;;;;;;;;;;;;;;;;;1029405;28;1810;-47
2022/08/05 03:26:28;;;;;;;;;;;;;;;;;;1029278;28;2425;-47
2022/08/05 03:26:58;;;;;;;;;;;;;;;;;;1028987;28;2249;-48
2022/08/05 03:27:29;;;;;;;;;;;;;;;;;;1029350;28;3331;-47
2022/08/05 03:28:00;;;;;;;;;;;;;;;;;;1029507;28;3847;-49
2022/08/05 03:28:30;;;;;;;;;;;;;;;;;;1029397;28;3361;-49
2022/08/05 03:29:01;;;;;;;;;;;;;;;;;;1029296;28;1917;-48
2022/08/05 03:29:31;;;;;;;;;;;;;;;;;;1029026;28;3612;-48
2022/08/05 03:30:01;;;;;;;;;;;;;;;;;;1029646;28;1760;-49
2022/08/05 03:30:32;;;;;;;;;;;;;;;;;;1027846;28;4009;-49
2022/08/05 03:31:03;;;;;;;;;;;;;;;;;;1029649;28;1645;-48
2022/08/05 03:31:34;;;;;;;;;;;;;;;;;;1029225;28;3401;-49
2022/08/05 03:32:04;;;;;;;;;;;;;;;;;;1028505;28;3327;-47
2022/08/05 03:32:35;;;;;;;;;;;;;;;;;;1030329;28;2314;-47
2022/08/05 03:33:05;;;;;;;;;;;;;;;;;;1028763;28;3494;-48
2022/08/05 03:33:36;;;;;;;;;;;;;;;;;;1030133;28;3207;-48
2022/08/05 03:34:07;;;;;;;;;;;;;;;;;;1028580;28;3080;-51
2022/08/05 03:34:37;;;;;;;;;;;;;;;;;;1029933;28;3175;-49
2022/08/05 03:35:07;;;;;;;;;;;;;;;;;;1028435;28;2258;-49
2022/08/05 03:35:38;;;;;;;;;;;;;;;;;;1030556;28;1910;-50
2022/08/05 03:36:09;;;;;;;;;;;;;;;;;;1028655;28;2144;-48
2022/08/05 03:36:40;;;;;;;;;;;;;;;;;;1027793;28;3448;-48
2022/08/05 03:37:10;;;;;;;;;;;;;;;;;;1026526;28;3565;-47
2022/08/05 03:37:41;;;;;;;;;;;;;;;;;;1026237;28;3514;-50
2022/08/05 03:38:11;;;;;;;;;;;;;;;;;;1023258;28;3352;-49
2022/08/05 03:38:42;;;;;;;;;;;;;;;;;;1024391;28;3401;-52
2022/08/05 03:39:12;;;;;;;;;;;;;;;;;;1023032;28;3912;-47
2022/08/05 03:39:53;;;;;;;;;;;;;;;;;;1030409;28;1591;-49
2022/08/05 03:40:24;;;;;;;;;;;;;;;;;;1029091;28;2537;-50
2022/08/05 03:40:54;;;;;;;;;;;;;;;;;;1029814;28;3244;-50
2022/08/05 03:41:25;;;;;;;;;;;;;;;;;;1028902;28;3099;-48
2022/08/05 03:41:56;;;;;;;;;;;;;;;;;;1029720;28;1710;-48
2022/08/05 03:42:26;;;;;;;;;;;;;;;;;;1028612;28;3348;-49
2022/08/05 03:43:03;;;;;;;;;;;;;;;;;;1028844;28;2857;-48
2022/08/05 03:43:33;;;;;;;;;;;;;;;;;;1028988;28;3439;-48
2022/08/05 03:44:03;;;;;;;;;;;;;;;;;;1030025;28;1758;-49